Terminal Aerodrome Forecast
Issued by NWS Wilmington, NC

Home | Current Version | Previous Version | Text Only | Print | Product List | Glossary On
Versions: 1 2 3 4 5 6 7 8 9 10 11 12 13 14 15 16 17 18 19 20 21 22
516
FTUS42 KILM 270524
TAFFLO
TAF
KFLO 270524Z 2706/2806 VRB02KT P6SM FEW020 BKN120
     FM271000 VRB02KT 4SM BR FEW010 SCT020 BKN120
     FM271200 05005KT P6SM SCT030 BKN120
     FM280000 12005KT P6SM BKN030=

USA.gov is the U.S. government's official web portal to all federal, state and local government web resources and services.